createdAt,value
2023-09-28T00:00:35.537Z,22.73
2023-09-28T00:03:04.095Z,20.50
2023-09-28T00:05:31.734Z,18.40
2023-09-28T00:08:01.909Z,22.20
2023-09-28T00:10:30.604Z,30.80
2023-09-28T00:12:58.330Z,30.08
2023-09-28T00:15:26.125Z,21.05
2023-09-28T00:17:53.972Z,24.42
2023-09-28T00:20:25.172Z,36.92
2023-09-28T00:22:54.641Z,22.25
2023-09-28T00:25:24.866Z,32.92
2023-09-28T00:27:57.420Z,22.33
2023-09-28T00:30:27.628Z,29.23
2023-09-28T00:32:56.824Z,27.08
2023-09-28T00:35:26.780Z,31.85
2023-09-28T00:37:54.972Z,30.60
2023-09-28T00:40:35.039Z,28.98
2023-09-28T00:43:03.360Z,28.83
2023-09-28T00:45:31.217Z,28.88
2023-09-28T00:48:04.300Z,32.40
2023-09-28T00:50:33.287Z,22.17
2023-09-28T00:53:12.129Z,30.67
2023-09-28T00:55:41.355Z,22.15
2023-09-28T00:58:11.800Z,27.20
2023-09-28T01:00:41.831Z,23.90
2023-09-28T01:03:10.915Z,24.30
2023-09-28T01:05:41.944Z,22.48
2023-09-28T01:08:22.930Z,28.60
2023-09-28T01:10:53.428Z,23.65
2023-09-28T01:13:25.424Z,19.45
2023-09-28T01:15:53.025Z,34.08
2023-09-28T01:18:23.952Z,18.08
2023-09-28T01:20:55.958Z,28.20
2023-09-28T01:23:24.885Z,28.10
2023-09-28T01:25:53.448Z,33.10
2023-09-28T01:28:22.340Z,21.67
2023-09-28T01:30:50.841Z,18.33
2023-09-28T01:33:18.407Z,22.40
2023-09-28T01:35:47.617Z,27.20
2023-09-28T01:38:27.777Z,20.23
2023-09-28T01:40:55.570Z,23.98
2023-09-28T01:43:23.626Z,26.25
2023-09-28T01:45:51.097Z,24.20
2023-09-28T01:48:18.685Z,19.77
2023-09-28T01:50:46.212Z,18.05
2023-09-28T01:53:13.775Z,20.65
2023-09-28T01:55:41.843Z,26.35
2023-09-28T01:58:09.713Z,22.35
2023-09-28T02:00:40.096Z,21.35
2023-09-28T02:03:10.334Z,13.00
2023-09-28T02:05:38.738Z,22.83
2023-09-28T02:08:07.426Z,17.58
2023-09-28T02:10:34.916Z,22.08
2023-09-28T02:13:02.538Z,20.45
2023-09-28T02:15:30.137Z,27.80
2023-09-28T02:17:57.620Z,20.58
2023-09-28T02:20:26.327Z,22.30
2023-09-28T02:22:55.011Z,19.73
2023-09-28T02:25:26.018Z,22.88
2023-09-28T02:27:54.465Z,20.35
2023-09-28T02:30:26.818Z,15.00
2023-09-28T02:32:57.530Z,15.43
2023-09-28T02:35:25.665Z,23.25
2023-09-28T02:37:53.637Z,21.08
2023-09-28T02:40:21.599Z,21.25
2023-09-28T02:42:50.360Z,15.45
2023-09-28T02:45:18.463Z,21.88
2023-09-28T02:47:48.709Z,25.38
2023-09-28T02:50:20.572Z,20.15
2023-09-28T02:52:48.716Z,20.52
2023-09-28T02:55:19.879Z,19.48
2023-09-28T02:57:50.809Z,15.45
2023-09-28T03:00:21.500Z,34.35
2023-09-28T03:02:49.250Z,25.15
2023-09-28T03:05:18.675Z,23.08
2023-09-28T03:07:49.721Z,12.55
2023-09-28T03:10:19.662Z,12.55
2023-09-28T03:12:48.649Z,22.73
2023-09-28T03:15:21.561Z,13.23
2023-09-28T03:17:49.845Z,17.17
2023-09-28T03:20:19.169Z,15.45
2023-09-28T03:22:48.464Z,18.05
2023-09-28T03:25:20.056Z,13.60
2023-09-28T03:27:51.369Z,14.48
2023-09-28T03:30:20.858Z,21.10
2023-09-28T03:32:49.008Z,10.55
2023-09-28T03:35:21.294Z,13.00
2023-09-28T03:37:50.325Z,17.55
2023-09-28T03:40:18.073Z,16.05
2023-09-28T03:42:51.775Z,13.95
2023-09-28T03:45:23.128Z,8.05
2023-09-28T03:47:53.008Z,7.38
2023-09-28T03:50:22.638Z,17.08
2023-09-28T03:52:50.709Z,17.70
2023-09-28T03:55:20.351Z,12.88
2023-09-28T03:57:48.264Z,15.25
2023-09-28T04:00:18.940Z,15.65
2023-09-28T04:02:52.173Z,11.30
2023-09-28T04:05:21.132Z,19.95
2023-09-28T04:07:48.841Z,16.38
2023-09-28T04:10:16.521Z,20.02
2023-09-28T04:12:44.175Z,15.00
2023-09-28T04:15:11.710Z,15.95
2023-09-28T04:17:42.006Z,23.95
2023-09-28T04:20:11.694Z,24.83
2023-09-28T04:22:39.176Z,15.40
2023-09-28T04:25:07.128Z,9.35
2023-09-28T04:27:35.642Z,10.55
2023-09-28T04:30:05.230Z,13.02
2023-09-28T04:32:33.078Z,20.23
2023-09-28T04:35:00.680Z,18.17
2023-09-28T04:37:28.225Z,16.67
2023-09-28T04:39:55.734Z,14.27
2023-09-28T04:42:23.257Z,18.33
2023-09-28T04:44:51.229Z,10.85
2023-09-28T04:47:19.184Z,12.75
2023-09-28T04:49:47.167Z,16.67
2023-09-28T04:52:15.318Z,9.75
2023-09-28T04:54:43.588Z,9.63
2023-09-28T04:57:11.313Z,7.88
2023-09-28T04:59:40.343Z,7.93
2023-09-28T05:02:09.002Z,8.90
2023-09-28T05:04:36.907Z,11.68
2023-09-28T05:07:05.914Z,9.77
2023-09-28T05:09:34.671Z,12.82
2023-09-28T05:12:05.053Z,8.23
2023-09-28T05:14:33.190Z,7.03
2023-09-28T05:17:01.552Z,11.20
2023-09-28T05:19:31.517Z,10.00
2023-09-28T05:21:59.593Z,13.07
2023-09-28T05:24:27.317Z,7.85
2023-09-28T05:26:56.033Z,6.40
2023-09-28T05:29:24.314Z,13.82
2023-09-28T05:31:52.144Z,12.80
2023-09-28T05:34:20.279Z,9.20
2023-09-28T05:36:48.507Z,11.25
2023-09-28T05:39:17.292Z,9.65
2023-09-28T05:41:44.822Z,7.93
2023-09-28T05:44:14.113Z,10.27
2023-09-28T05:46:41.983Z,12.57
2023-09-28T05:49:09.575Z,10.02
2023-09-28T05:51:37.211Z,16.63
2023-09-28T05:54:05.030Z,9.48
2023-09-28T05:56:32.641Z,13.32
2023-09-28T05:59:01.022Z,12.23
2023-09-28T06:01:33.247Z,16.08
2023-09-28T06:04:01.047Z,9.80
2023-09-28T06:06:28.706Z,12.05
2023-09-28T06:08:56.400Z,12.82
2023-09-28T06:11:24.411Z,9.07
2023-09-28T06:14:06.921Z,7.93
2023-09-28T06:16:38.355Z,11.43
2023-09-28T06:19:06.277Z,8.90
2023-09-28T06:21:34.346Z,16.27
2023-09-28T06:24:02.757Z,9.55
2023-09-28T06:26:42.194Z,12.23
2023-09-28T06:29:11.935Z,7.70
2023-09-28T06:31:40.471Z,9.63
2023-09-28T06:34:08.299Z,14.75
2023-09-28T06:39:06.635Z,7.03
2023-09-28T06:41:34.254Z,4.18
2023-09-28T06:44:01.802Z,9.75
2023-09-28T06:46:30.064Z,11.52
2023-09-28T06:48:57.842Z,5.03
2023-09-28T06:51:27.415Z,10.18
2023-09-28T06:53:56.036Z,11.30
2023-09-28T06:56:23.696Z,11.85
2023-09-28T06:58:54.202Z,10.73
2023-09-28T07:01:22.821Z,10.40
2023-09-28T07:03:54.440Z,14.88
2023-09-28T07:06:26.125Z,10.98
2023-09-28T07:08:56.540Z,14.30
2023-09-28T07:11:25.442Z,11.90
2023-09-28T07:13:55.992Z,14.00
2023-09-28T07:16:23.751Z,8.25
2023-09-28T07:18:51.408Z,10.57
2023-09-28T07:21:19.237Z,17.52
2023-09-28T07:23:46.897Z,12.63
2023-09-28T07:26:18.409Z,12.63
2023-09-28T07:28:46.842Z,7.40
2023-09-28T07:31:16.596Z,8.98
2023-09-28T07:33:44.909Z,8.70
2023-09-28T07:36:12.981Z,7.53
2023-09-28T07:38:40.463Z,8.50
2023-09-28T07:41:08.095Z,11.43
2023-09-28T07:43:36.576Z,11.10
2023-09-28T07:46:04.308Z,12.88
2023-09-28T07:48:31.868Z,14.35
2023-09-28T07:51:00.228Z,7.43
2023-09-28T07:53:27.975Z,8.45
2023-09-28T07:55:55.948Z,5.05
2023-09-28T07:58:27.264Z,14.43
2023-09-28T08:00:55.866Z,12.02
2023-09-28T08:03:23.730Z,10.25
2023-09-28T08:05:52.190Z,17.70
2023-09-28T08:08:20.528Z,18.50
2023-09-28T08:10:49.067Z,8.98
2023-09-28T08:13:17.199Z,9.70
2023-09-28T08:15:47.877Z,11.07
2023-09-28T08:18:15.590Z,6.07
2023-09-28T08:20:55.139Z,9.20
2023-09-28T08:23:27.942Z,11.10
2023-09-28T08:25:56.840Z,13.45
2023-09-28T08:28:25.286Z,13.90
2023-09-28T08:30:57.789Z,12.45
2023-09-28T08:33:26.280Z,16.23
2023-09-28T08:35:54.311Z,11.30
2023-09-28T08:38:22.011Z,9.68
2023-09-28T08:40:55.294Z,7.15
2023-09-28T08:43:23.466Z,12.95
2023-09-28T08:45:54.172Z,8.07
2023-09-28T08:48:24.139Z,13.10
2023-09-28T08:50:57.363Z,11.55
2023-09-28T08:53:25.436Z,20.88
2023-09-28T08:55:53.040Z,13.25
2023-09-28T08:58:21.662Z,12.57
2023-09-28T09:00:49.307Z,11.98
2023-09-28T09:03:22.644Z,7.53
2023-09-28T09:05:51.465Z,9.05
2023-09-28T09:08:20.409Z,17.15
2023-09-28T09:10:48.742Z,10.38
2023-09-28T09:13:18.183Z,19.20
2023-09-28T09:15:46.157Z,10.55
2023-09-28T09:18:25.612Z,12.38
2023-09-28T09:20:59.516Z,18.05
2023-09-28T09:23:29.927Z,10.70
2023-09-28T09:25:57.858Z,17.65
2023-09-28T09:28:34.167Z,17.95
2023-09-28T09:31:04.941Z,5.63
2023-09-28T09:33:34.483Z,12.80
2023-09-28T09:36:02.511Z,15.25
2023-09-28T09:38:31.453Z,7.85
2023-09-28T09:41:00.918Z,15.65
2023-09-28T09:43:41.466Z,19.30
2023-09-28T09:46:10.866Z,11.98
2023-09-28T09:48:44.144Z,7.93
2023-09-28T09:51:16.602Z,15.45
2023-09-28T09:53:48.941Z,12.82
2023-09-28T09:56:17.379Z,10.65
2023-09-28T09:58:49.815Z,11.00
2023-09-28T10:01:19.393Z,17.38
2023-09-28T10:03:49.095Z,15.75
2023-09-28T10:06:21.955Z,16.73
2023-09-28T10:08:55.308Z,14.05
2023-09-28T10:11:24.261Z,13.27
2023-09-28T10:13:52.983Z,18.55
2023-09-28T10:16:21.048Z,17.75
2023-09-28T10:18:51.987Z,14.18
2023-09-28T10:21:21.776Z,12.23
2023-09-28T10:23:49.158Z,15.80
2023-09-28T10:26:19.580Z,15.45
2023-09-28T10:29:06.888Z,14.57
2023-09-28T10:31:46.112Z,17.42
2023-09-28T10:34:24.932Z,19.15
2023-09-28T10:37:12.184Z,16.35
2023-09-28T10:39:40.209Z,19.08
2023-09-28T10:42:13.780Z,12.20
2023-09-28T10:44:48.640Z,21.97
2023-09-28T10:47:16.795Z,17.08
2023-09-28T10:49:45.205Z,19.27
2023-09-28T10:52:13.093Z,20.00
2023-09-28T10:54:40.705Z,20.27
2023-09-28T10:57:08.393Z,13.50
2023-09-28T10:59:38.486Z,17.00
2023-09-28T11:02:06.935Z,15.38
2023-09-28T11:04:50.156Z,18.67
2023-09-28T11:07:18.984Z,22.90
2023-09-28T11:09:46.548Z,17.13
2023-09-28T11:12:14.823Z,18.20
2023-09-28T11:14:45.624Z,13.07
2023-09-28T11:17:13.206Z,15.57
2023-09-28T11:19:40.848Z,19.48
2023-09-28T11:22:09.089Z,15.98
2023-09-28T11:24:36.799Z,15.57
2023-09-28T11:27:04.477Z,10.10
2023-09-28T11:29:33.431Z,16.20
2023-09-28T11:32:01.045Z,16.67
2023-09-28T11:34:30.276Z,17.52
2023-09-28T11:37:01.821Z,25.13
2023-09-28T11:39:29.700Z,15.15
2023-09-28T11:41:59.006Z,14.45
2023-09-28T11:44:30.728Z,14.88
2023-09-28T11:46:58.378Z,21.40
2023-09-28T11:49:26.008Z,15.70
2023-09-28T11:51:56.623Z,18.67
2023-09-28T11:54:24.349Z,12.82
2023-09-28T11:56:52.810Z,15.07
2023-09-28T11:59:21.191Z,23.67
2023-09-28T12:01:57.810Z,20.27
2023-09-28T12:04:25.537Z,14.48
2023-09-28T12:06:52.913Z,13.55
2023-09-28T12:09:21.145Z,11.23
2023-09-28T12:11:51.174Z,10.07
2023-09-28T12:14:20.547Z,16.92
2023-09-28T12:16:50.364Z,17.08
2023-09-28T12:19:19.586Z,22.30
2023-09-28T12:21:47.704Z,22.33
2023-09-28T12:24:15.039Z,20.23
2023-09-28T12:26:42.416Z,17.17
2023-09-28T12:29:09.874Z,19.92
2023-09-28T12:31:37.505Z,15.63
2023-09-28T12:34:05.052Z,15.95
2023-09-28T12:36:33.686Z,15.68
2023-09-28T12:39:01.709Z,14.45
2023-09-28T12:41:29.306Z,18.35
2023-09-28T12:43:57.048Z,19.08
2023-09-28T12:46:24.734Z,18.30
2023-09-28T12:48:54.087Z,12.80
2023-09-28T12:51:21.958Z,18.20
2023-09-28T12:53:49.324Z,18.60
2023-09-28T12:56:18.381Z,15.73
2023-09-28T12:58:45.917Z,9.75
2023-09-28T13:01:13.857Z,17.65
2023-09-28T13:03:41.368Z,13.27
2023-09-28T13:06:12.079Z,15.88
2023-09-28T13:08:39.577Z,12.38
2023-09-28T13:11:07.570Z,9.55
2023-09-28T13:13:38.918Z,15.98
2023-09-28T13:16:07.272Z,7.75
2023-09-28T13:18:37.450Z,10.52
2023-09-28T13:21:05.431Z,11.15
2023-09-28T13:23:32.961Z,10.75
2023-09-28T13:26:00.613Z,9.07
2023-09-28T13:28:28.060Z,14.38
2023-09-28T13:30:58.733Z,15.75
2023-09-28T13:33:26.547Z,12.60
2023-09-28T13:35:53.947Z,12.77
2023-09-28T13:38:21.333Z,12.93
2023-09-28T13:40:56.948Z,9.43
2023-09-28T13:43:27.856Z,10.18
2023-09-28T13:45:55.512Z,17.35
2023-09-28T13:48:23.783Z,7.38
2023-09-28T13:50:51.213Z,6.50
2023-09-28T13:53:18.576Z,10.77
2023-09-28T13:55:50.579Z,13.35
2023-09-28T13:58:18.179Z,11.68
2023-09-28T14:00:47.358Z,16.58
2023-09-28T14:03:15.135Z,17.52
2023-09-28T14:05:43.410Z,11.40
2023-09-28T14:08:12.772Z,10.05
2023-09-28T14:10:40.189Z,16.00
2023-09-28T14:13:07.622Z,16.08
2023-09-28T14:15:35.488Z,16.92
2023-09-28T14:18:03.989Z,14.40
2023-09-28T14:20:31.434Z,7.95
2023-09-28T14:22:59.153Z,8.40
2023-09-28T14:25:26.588Z,17.20
2023-09-28T14:27:54.072Z,12.80
2023-09-28T14:30:23.161Z,10.88
2023-09-28T14:32:51.086Z,8.82
2023-09-28T14:35:18.833Z,9.32
2023-09-28T14:37:46.323Z,14.15
2023-09-28T14:40:15.684Z,9.38
2023-09-28T14:42:46.154Z,9.60
2023-09-28T14:45:14.473Z,19.75
2023-09-28T14:47:42.673Z,14.95
2023-09-28T14:50:12.003Z,15.02
2023-09-28T14:52:40.710Z,9.23
2023-09-28T14:55:09.382Z,15.05
2023-09-28T14:57:36.947Z,18.27
2023-09-28T15:00:12.987Z,9.85
2023-09-28T15:02:40.814Z,12.32
2023-09-28T15:05:11.010Z,8.40
2023-09-28T15:07:38.882Z,15.07
2023-09-28T15:10:06.993Z,7.85
2023-09-28T15:12:34.408Z,9.13
2023-09-28T15:15:01.918Z,7.15
2023-09-28T15:17:31.631Z,12.00
2023-09-28T15:20:06.734Z,12.07
2023-09-28T15:22:34.341Z,13.68
2023-09-28T15:25:01.806Z,8.18
2023-09-28T15:27:29.190Z,12.35
2023-09-28T15:29:56.568Z,9.75
2023-09-28T15:32:24.085Z,9.88
2023-09-28T15:34:52.236Z,15.38
2023-09-28T15:37:19.914Z,14.88
2023-09-28T15:39:47.729Z,15.70
2023-09-28T15:42:21.204Z,12.38
2023-09-28T15:44:48.662Z,14.82
2023-09-28T15:47:16.216Z,13.57
2023-09-28T15:49:43.677Z,14.60
2023-09-28T15:52:11.898Z,17.98
2023-09-28T15:54:39.380Z,15.32
2023-09-28T15:57:06.860Z,9.00
2023-09-28T15:59:34.450Z,15.10
2023-09-28T16:02:02.559Z,14.98
2023-09-28T16:04:30.178Z,16.55
2023-09-28T16:06:58.428Z,16.48
2023-09-28T16:09:25.878Z,12.93
2023-09-28T16:11:53.483Z,14.82
2023-09-28T16:14:21.097Z,16.85
2023-09-28T16:16:48.576Z,14.15
2023-09-28T16:19:16.116Z,9.60
2023-09-28T16:21:43.712Z,15.88
2023-09-28T16:24:11.377Z,13.82
2023-09-28T16:26:38.849Z,16.80
2023-09-28T16:29:06.433Z,17.27
2023-09-28T16:31:33.913Z,17.88
2023-09-28T16:34:01.320Z,15.30
2023-09-28T16:36:28.763Z,16.02
2023-09-28T16:38:56.373Z,14.35
2023-09-28T16:41:24.684Z,13.57
2023-09-28T16:43:52.144Z,14.13
2023-09-28T16:46:20.785Z,10.60
2023-09-28T16:48:48.682Z,11.60
2023-09-28T16:51:16.400Z,16.30
2023-09-28T16:53:43.937Z,16.35
2023-09-28T16:56:11.665Z,13.30
2023-09-28T16:58:41.279Z,10.70
2023-09-28T17:01:08.810Z,15.98
2023-09-28T17:03:36.591Z,18.38
2023-09-28T17:06:04.341Z,22.27
2023-09-28T17:08:35.773Z,22.05
2023-09-28T17:11:04.321Z,13.00
2023-09-28T17:13:31.882Z,12.68
2023-09-28T17:15:59.413Z,10.57
2023-09-28T17:18:27.038Z,14.73
2023-09-28T17:20:54.574Z,12.68
2023-09-28T17:23:22.286Z,13.57
2023-09-28T17:25:51.297Z,11.35
2023-09-28T17:28:19.067Z,14.80
2023-09-28T17:30:47.592Z,15.88
2023-09-28T17:33:15.354Z,17.13
2023-09-28T17:35:43.334Z,16.77
2023-09-28T17:38:11.229Z,14.90
2023-09-28T17:40:39.222Z,15.02
2023-09-28T17:43:06.911Z,12.88
2023-09-28T17:45:34.424Z,15.95
2023-09-28T17:48:02.190Z,14.65
2023-09-28T17:50:29.801Z,13.85
2023-09-28T17:52:57.280Z,18.85
2023-09-28T17:55:24.678Z,12.50
2023-09-28T17:57:52.116Z,11.65
2023-09-28T18:00:20.423Z,15.45
2023-09-28T18:02:49.129Z,14.20
2023-09-28T18:05:17.196Z,10.70
2023-09-28T18:07:44.827Z,16.80
2023-09-28T18:10:12.398Z,10.77
2023-09-28T18:12:39.910Z,11.00
2023-09-28T18:15:09.903Z,17.70
2023-09-28T18:17:37.410Z,13.90
2023-09-28T18:20:05.266Z,16.52
2023-09-28T18:22:34.508Z,14.27
2023-09-28T18:25:02.115Z,13.60
2023-09-28T18:27:29.758Z,18.55
2023-09-28T18:29:57.616Z,18.60
2023-09-28T18:32:25.284Z,12.70
2023-09-28T18:34:52.848Z,12.68
2023-09-28T18:37:20.393Z,12.02
2023-09-28T18:39:48.226Z,14.35
2023-09-28T18:42:15.897Z,10.27
2023-09-28T18:44:43.396Z,16.95
2023-09-28T18:47:11.441Z,11.38
2023-09-28T18:49:38.998Z,10.70
2023-09-28T18:52:06.660Z,11.45
2023-09-28T18:54:34.234Z,14.27
2023-09-28T18:57:05.291Z,7.72
2023-09-28T18:59:32.877Z,7.57
2023-09-28T19:02:00.365Z,11.30
2023-09-28T19:04:30.786Z,4.15
2023-09-28T19:07:00.400Z,10.35
2023-09-28T19:09:28.071Z,13.73
2023-09-28T19:11:55.601Z,8.23
2023-09-28T19:14:23.264Z,9.75
2023-09-28T19:16:52.147Z,6.15
2023-09-28T19:19:19.650Z,3.65
2023-09-28T19:21:47.140Z,9.30
2023-09-28T19:24:14.706Z,8.55
2023-09-28T19:26:42.387Z,8.43
2023-09-28T19:29:10.718Z,7.22
2023-09-28T19:31:38.321Z,10.77
2023-09-28T19:34:08.349Z,7.65
2023-09-28T19:36:36.710Z,9.05
2023-09-28T19:39:04.674Z,8.93
2023-09-28T19:41:34.481Z,8.50
2023-09-28T19:44:02.281Z,13.48
2023-09-28T19:46:29.916Z,9.57
2023-09-28T19:48:59.445Z,10.93
2023-09-28T19:51:27.539Z,18.33
2023-09-28T19:53:55.252Z,9.55
2023-09-28T19:56:30.508Z,13.48
2023-09-28T19:58:58.908Z,11.93
2023-09-28T20:01:26.668Z,12.10
2023-09-28T20:03:55.828Z,11.02
2023-09-28T20:06:23.933Z,21.05
2023-09-28T20:08:51.909Z,14.43
2023-09-28T20:11:19.572Z,16.33
2023-09-28T20:13:47.082Z,10.18
2023-09-28T20:16:14.603Z,16.83
2023-09-28T20:18:42.244Z,9.70
2023-09-28T20:21:09.765Z,8.20
2023-09-28T20:23:37.230Z,6.53
2023-09-28T20:26:05.408Z,13.43
2023-09-28T20:28:32.794Z,13.30
2023-09-28T20:31:00.640Z,13.93
2023-09-28T20:33:28.224Z,17.13
2023-09-28T20:35:55.654Z,16.70
2023-09-28T20:38:23.117Z,13.68
2023-09-28T20:40:50.818Z,16.80
2023-09-28T20:43:18.299Z,7.85
2023-09-28T20:45:45.805Z,12.40
2023-09-28T20:48:13.483Z,14.55
2023-09-28T20:50:42.286Z,8.88
2023-09-28T20:53:11.709Z,10.90
2023-09-28T20:55:39.196Z,12.30
2023-09-28T20:58:06.600Z,12.60
2023-09-28T21:00:36.210Z,8.30
2023-09-28T21:03:04.597Z,19.55
2023-09-28T21:05:32.211Z,7.55
2023-09-28T21:08:00.080Z,10.80
2023-09-28T21:10:27.808Z,11.25
2023-09-28T21:12:55.289Z,20.30
2023-09-28T21:15:22.736Z,7.93
2023-09-28T21:17:50.258Z,17.42
2023-09-28T21:20:19.673Z,13.35
2023-09-28T21:22:47.180Z,13.20
2023-09-28T21:25:14.666Z,10.07
2023-09-28T21:27:42.064Z,7.43
2023-09-28T21:30:10.295Z,9.05
2023-09-28T21:32:38.104Z,9.68
2023-09-28T21:35:06.314Z,5.90
2023-09-28T21:37:33.693Z,11.75
2023-09-28T21:40:01.368Z,9.68
2023-09-28T21:42:29.023Z,8.13
2023-09-28T21:45:00.584Z,10.40
2023-09-28T21:47:28.403Z,6.93
2023-09-28T21:49:56.021Z,10.75
2023-09-28T21:52:24.666Z,7.30
2023-09-28T21:54:52.413Z,5.03
2023-09-28T21:57:20.646Z,9.45
2023-09-28T21:59:48.302Z,4.15
2023-09-28T22:02:15.780Z,6.90
2023-09-28T22:04:43.270Z,4.65
2023-09-28T22:07:10.879Z,7.05
2023-09-28T22:09:38.379Z,6.47
2023-09-28T22:12:06.041Z,8.50
2023-09-28T22:14:33.666Z,9.02
2023-09-28T22:17:01.137Z,3.38
2023-09-28T22:19:28.423Z,11.55
2023-09-28T22:21:55.754Z,7.95
2023-09-28T22:24:23.159Z,6.18
2023-09-28T22:26:50.634Z,6.07
2023-09-28T22:29:18.820Z,8.73
2023-09-28T22:31:46.253Z,6.05
2023-09-28T22:34:13.747Z,8.18
2023-09-28T22:36:41.153Z,3.53
2023-09-28T22:39:08.587Z,7.40
2023-09-28T22:41:36.081Z,6.18
2023-09-28T22:44:03.539Z,10.20
2023-09-28T22:46:30.936Z,7.50
2023-09-28T22:48:58.439Z,13.98
2023-09-28T22:51:25.800Z,9.25
2023-09-28T22:53:53.261Z,12.88
2023-09-28T22:56:20.715Z,8.52
2023-09-28T22:58:48.281Z,6.05
2023-09-28T23:01:15.665Z,13.70
2023-09-28T23:03:43.119Z,10.85
2023-09-28T23:06:10.767Z,14.35
2023-09-28T23:08:38.136Z,9.77
2023-09-28T23:11:06.115Z,6.88
2023-09-28T23:13:36.843Z,6.53
2023-09-28T23:16:06.510Z,5.25
2023-09-28T23:18:34.828Z,10.27
2023-09-28T23:21:02.446Z,7.97
2023-09-28T23:23:30.516Z,5.03
2023-09-28T23:25:58.149Z,12.20
2023-09-28T23:28:26.233Z,4.55
2023-09-28T23:30:56.806Z,7.43
2023-09-28T23:33:25.182Z,9.85
2023-09-28T23:35:52.974Z,6.95
2023-09-28T23:38:21.193Z,7.47
2023-09-28T23:40:49.382Z,9.93
2023-09-28T23:43:16.889Z,8.35
2023-09-28T23:45:45.225Z,12.35
2023-09-28T23:48:12.751Z,6.20
2023-09-28T23:50:40.356Z,6.65
2023-09-28T23:53:10.754Z,8.65
2023-09-28T23:55:38.274Z,9.15
2023-09-28T23:58:06.651Z,6.40
